sensor_id;sensor_type;location;lat;lon;timestamp;P1;durP1;ratioP1;P2;durP2;ratioP2
68577;SDS011;61668;45.388;11.784;2023-03-23T00:01:49;16.00;;;8.50;;
68577;SDS011;61668;45.388;11.784;2023-03-23T00:04:18;17.00;;;9.00;;
68577;SDS011;61668;45.388;11.784;2023-03-23T00:06:44;16.00;;;8.70;;
68577;SDS011;61668;45.388;11.784;2023-03-23T00:09:12;17.90;;;9.60;;
68577;SDS011;61668;45.388;11.784;2023-03-23T00:11:49;15.50;;;8.80;;
68577;SDS011;61668;45.388;11.784;2023-03-23T00:14:16;20.30;;;9.70;;
68577;SDS011;61668;45.388;11.784;2023-03-23T00:16:48;18.30;;;9.30;;
68577;SDS011;61668;45.388;11.784;2023-03-23T00:19:15;19.10;;;9.10;;
68577;SDS011;61668;45.388;11.784;2023-03-23T00:21:42;17.80;;;10.00;;
68577;SDS011;61668;45.388;11.784;2023-03-23T00:26:45;20.90;;;10.50;;
68577;SDS011;61668;45.388;11.784;2023-03-23T00:29:18;19.10;;;10.60;;
68577;SDS011;61668;45.388;11.784;2023-03-23T00:31:46;17.70;;;9.90;;
68577;SDS011;61668;45.388;11.784;2023-03-23T00:34:21;18.60;;;10.70;;
68577;SDS011;61668;45.388;11.784;2023-03-23T00:36:52;16.90;;;9.30;;
68577;SDS011;61668;45.388;11.784;2023-03-23T00:39:22;19.70;;;10.10;;
68577;SDS011;61668;45.388;11.784;2023-03-23T00:41:53;19.40;;;10.10;;
68577;SDS011;61668;45.388;11.784;2023-03-23T00:44:27;21.10;;;10.60;;
68577;SDS011;61668;45.388;11.784;2023-03-23T00:46:53;18.50;;;10.10;;
68577;SDS011;61668;45.388;11.784;2023-03-23T00:49:23;19.90;;;10.50;;
68577;SDS011;61668;45.388;11.784;2023-03-23T00:51:54;18.40;;;9.60;;
68577;SDS011;61668;45.388;11.784;2023-03-23T00:54:22;18.70;;;10.80;;
68577;SDS011;61668;45.388;11.784;2023-03-23T00:56:49;18.80;;;10.20;;
68577;SDS011;61668;45.388;11.784;2023-03-23T00:59:15;22.40;;;12.00;;
68577;SDS011;61668;45.388;11.784;2023-03-23T01:01:42;20.00;;;10.40;;
68577;SDS011;61668;45.388;11.784;2023-03-23T01:04:08;22.00;;;12.30;;
68577;SDS011;61668;45.388;11.784;2023-03-23T01:06:39;22.50;;;11.80;;
68577;SDS011;61668;45.388;11.784;2023-03-23T01:09:09;20.60;;;11.90;;
68577;SDS011;61668;45.388;11.784;2023-03-23T01:11:43;21.60;;;11.60;;
68577;SDS011;61668;45.388;11.784;2023-03-23T01:14:11;21.10;;;11.80;;
68577;SDS011;61668;45.388;11.784;2023-03-23T01:16:37;19.40;;;10.90;;
68577;SDS011;61668;45.388;11.784;2023-03-23T01:19:03;21.40;;;11.50;;
68577;SDS011;61668;45.388;11.784;2023-03-23T01:21:29;22.90;;;10.40;;
68577;SDS011;61668;45.388;11.784;2023-03-23T01:23:55;17.50;;;10.10;;
68577;SDS011;61668;45.388;11.784;2023-03-23T01:26:23;17.80;;;9.10;;
68577;SDS011;61668;45.388;11.784;2023-03-23T01:28:50;17.90;;;9.70;;
68577;SDS011;61668;45.388;11.784;2023-03-23T01:31:20;16.20;;;8.20;;
68577;SDS011;61668;45.388;11.784;2023-03-23T01:33:48;20.60;;;9.80;;
68577;SDS011;61668;45.388;11.784;2023-03-23T01:36:20;19.80;;;11.40;;
68577;SDS011;61668;45.388;11.784;2023-03-23T01:38:49;21.20;;;10.90;;
68577;SDS011;61668;45.388;11.784;2023-03-23T01:41:16;22.40;;;11.60;;
68577;SDS011;61668;45.388;11.784;2023-03-23T01:46:33;22.00;;;10.90;;
68577;SDS011;61668;45.388;11.784;2023-03-23T01:49:19;20.00;;;11.30;;
68577;SDS011;61668;45.388;11.784;2023-03-23T01:51:56;21.40;;;11.30;;
68577;SDS011;61668;45.388;11.784;2023-03-23T01:54:25;22.60;;;10.50;;
68577;SDS011;61668;45.388;11.784;2023-03-23T01:56:56;19.50;;;11.40;;
68577;SDS011;61668;45.388;11.784;2023-03-23T01:59:25;18.40;;;10.60;;
68577;SDS011;61668;45.388;11.784;2023-03-23T02:01:53;18.20;;;10.80;;
68577;SDS011;61668;45.388;11.784;2023-03-23T02:04:20;19.90;;;10.70;;
68577;SDS011;61668;45.388;11.784;2023-03-23T02:06:47;19.20;;;10.00;;
68577;SDS011;61668;45.388;11.784;2023-03-23T02:09:14;21.50;;;11.10;;
68577;SDS011;61668;45.388;11.784;2023-03-23T02:11:42;23.60;;;12.10;;
68577;SDS011;61668;45.388;11.784;2023-03-23T02:14:08;20.90;;;11.70;;
68577;SDS011;61668;45.388;11.784;2023-03-23T02:17:15;21.70;;;11.10;;
68577;SDS011;61668;45.388;11.784;2023-03-23T02:29:11;19.60;;;11.10;;
68577;SDS011;61668;45.388;11.784;2023-03-23T02:32:26;19.80;;;11.20;;
68577;SDS011;61668;45.388;11.784;2023-03-23T02:38:01;24.30;;;12.20;;
68577;SDS011;61668;45.388;11.784;2023-03-23T02:40:41;20.50;;;10.80;;
68577;SDS011;61668;45.388;11.784;2023-03-23T02:43:12;22.30;;;12.30;;
68577;SDS011;61668;45.388;11.784;2023-03-23T02:45:42;22.70;;;11.90;;
68577;SDS011;61668;45.388;11.784;2023-03-23T02:48:10;23.30;;;13.70;;
68577;SDS011;61668;45.388;11.784;2023-03-23T02:50:41;22.70;;;13.00;;
68577;SDS011;61668;45.388;11.784;2023-03-23T02:53:10;22.20;;;12.70;;
68577;SDS011;61668;45.388;11.784;2023-03-23T02:55:41;24.20;;;13.40;;
68577;SDS011;61668;45.388;11.784;2023-03-23T02:58:08;23.40;;;12.10;;
68577;SDS011;61668;45.388;11.784;2023-03-23T03:00:35;22.50;;;11.30;;
68577;SDS011;61668;45.388;11.784;2023-03-23T03:03:03;22.40;;;12.10;;
68577;SDS011;61668;45.388;11.784;2023-03-23T03:08:55;22.50;;;11.80;;
68577;SDS011;61668;45.388;11.784;2023-03-23T03:11:25;22.50;;;11.90;;
68577;SDS011;61668;45.388;11.784;2023-03-23T03:13:59;22.30;;;12.40;;
68577;SDS011;61668;45.388;11.784;2023-03-23T03:16:34;19.00;;;10.90;;
68577;SDS011;61668;45.388;11.784;2023-03-23T03:21:43;21.50;;;10.70;;
68577;SDS011;61668;45.388;11.784;2023-03-23T03:24:13;19.00;;;10.20;;
68577;SDS011;61668;45.388;11.784;2023-03-23T03:26:45;19.60;;;10.60;;
68577;SDS011;61668;45.388;11.784;2023-03-23T03:29:15;20.50;;;10.90;;
68577;SDS011;61668;45.388;11.784;2023-03-23T03:31:44;19.30;;;9.30;;
68577;SDS011;61668;45.388;11.784;2023-03-23T03:34:14;18.10;;;9.80;;
68577;SDS011;61668;45.388;11.784;2023-03-23T03:36:45;18.80;;;9.90;;
68577;SDS011;61668;45.388;11.784;2023-03-23T03:39:13;17.50;;;9.20;;
68577;SDS011;61668;45.388;11.784;2023-03-23T03:41:41;18.90;;;9.10;;
68577;SDS011;61668;45.388;11.784;2023-03-23T03:44:07;16.80;;;8.90;;
68577;SDS011;61668;45.388;11.784;2023-03-23T03:46:35;16.90;;;8.60;;
68577;SDS011;61668;45.388;11.784;2023-03-23T03:49:03;17.40;;;8.70;;
68577;SDS011;61668;45.388;11.784;2023-03-23T03:51:31;18.10;;;9.00;;
68577;SDS011;61668;45.388;11.784;2023-03-23T03:53:57;18.60;;;9.40;;
68577;SDS011;61668;45.388;11.784;2023-03-23T03:56:24;19.40;;;9.00;;
68577;SDS011;61668;45.388;11.784;2023-03-23T03:58:51;18.10;;;9.00;;
68577;SDS011;61668;45.388;11.784;2023-03-23T04:01:22;20.30;;;10.40;;
68577;SDS011;61668;45.388;11.784;2023-03-23T04:03:50;21.90;;;10.10;;
68577;SDS011;61668;45.388;11.784;2023-03-23T04:06:17;19.40;;;9.40;;
68577;SDS011;61668;45.388;11.784;2023-03-23T04:08:44;18.20;;;9.40;;
68577;SDS011;61668;45.388;11.784;2023-03-23T04:11:12;19.00;;;10.10;;
68577;SDS011;61668;45.388;11.784;2023-03-23T04:13:39;19.70;;;9.50;;
68577;SDS011;61668;45.388;11.784;2023-03-23T04:16:06;18.30;;;9.40;;
68577;SDS011;61668;45.388;11.784;2023-03-23T04:18:33;18.90;;;11.20;;
68577;SDS011;61668;45.388;11.784;2023-03-23T04:21:00;18.40;;;10.20;;
68577;SDS011;61668;45.388;11.784;2023-03-23T04:23:28;21.10;;;11.00;;
68577;SDS011;61668;45.388;11.784;2023-03-23T04:25:56;20.30;;;11.30;;
68577;SDS011;61668;45.388;11.784;2023-03-23T04:28:26;21.30;;;10.90;;
68577;SDS011;61668;45.388;11.784;2023-03-23T04:30:53;19.20;;;10.30;;
68577;SDS011;61668;45.388;11.784;2023-03-23T04:33:24;25.30;;;11.60;;
68577;SDS011;61668;45.388;11.784;2023-03-23T04:35:54;23.90;;;11.80;;
68577;SDS011;61668;45.388;11.784;2023-03-23T04:38:23;21.00;;;11.60;;
68577;SDS011;61668;45.388;11.784;2023-03-23T04:40:51;21.20;;;11.10;;
68577;SDS011;61668;45.388;11.784;2023-03-23T04:43:20;20.80;;;11.60;;
68577;SDS011;61668;45.388;11.784;2023-03-23T04:45:55;24.80;;;12.50;;
68577;SDS011;61668;45.388;11.784;2023-03-23T04:48:28;24.40;;;13.50;;
68577;SDS011;61668;45.388;11.784;2023-03-23T04:50:58;25.20;;;13.90;;
68577;SDS011;61668;45.388;11.784;2023-03-23T04:53:28;27.80;;;14.60;;
68577;SDS011;61668;45.388;11.784;2023-03-23T04:55:55;23.80;;;14.60;;
68577;SDS011;61668;45.388;11.784;2023-03-23T04:58:20;24.30;;;13.60;;
68577;SDS011;61668;45.388;11.784;2023-03-23T05:00:48;24.90;;;13.80;;
68577;SDS011;61668;45.388;11.784;2023-03-23T05:03:18;28.00;;;14.90;;
68577;SDS011;61668;45.388;11.784;2023-03-23T05:05:46;26.50;;;13.30;;
68577;SDS011;61668;45.388;11.784;2023-03-23T05:08:20;25.60;;;15.10;;
68577;SDS011;61668;45.388;11.784;2023-03-23T05:10:51;27.30;;;13.70;;
68577;SDS011;61668;45.388;11.784;2023-03-23T05:13:21;25.00;;;14.90;;
68577;SDS011;61668;45.388;11.784;2023-03-23T05:15:47;27.20;;;14.30;;
68577;SDS011;61668;45.388;11.784;2023-03-23T05:18:14;27.50;;;13.30;;
68577;SDS011;61668;45.388;11.784;2023-03-23T05:20:40;27.10;;;13.50;;
68577;SDS011;61668;45.388;11.784;2023-03-23T05:23:12;26.20;;;13.70;;
68577;SDS011;61668;45.388;11.784;2023-03-23T05:25:39;25.00;;;14.60;;
68577;SDS011;61668;45.388;11.784;2023-03-23T05:28:06;28.10;;;15.90;;
68577;SDS011;61668;45.388;11.784;2023-03-23T05:30:38;30.00;;;16.00;;
68577;SDS011;61668;45.388;11.784;2023-03-23T05:33:05;28.20;;;15.90;;
68577;SDS011;61668;45.388;11.784;2023-03-23T05:35:31;29.10;;;16.70;;
68577;SDS011;61668;45.388;11.784;2023-03-23T05:37:57;31.50;;;18.20;;
68577;SDS011;61668;45.388;11.784;2023-03-23T05:40:23;30.60;;;18.40;;
68577;SDS011;61668;45.388;11.784;2023-03-23T05:42:51;37.30;;;19.60;;
68577;SDS011;61668;45.388;11.784;2023-03-23T05:45:18;35.20;;;18.60;;
68577;SDS011;61668;45.388;11.784;2023-03-23T05:47:44;37.40;;;21.20;;
68577;SDS011;61668;45.388;11.784;2023-03-23T05:50:11;40.50;;;22.30;;
68577;SDS011;61668;45.388;11.784;2023-03-23T05:52:38;37.50;;;22.40;;
68577;SDS011;61668;45.388;11.784;2023-03-23T05:55:05;37.60;;;22.10;;
68577;SDS011;61668;45.388;11.784;2023-03-23T05:57:33;40.70;;;22.00;;
68577;SDS011;61668;45.388;11.784;2023-03-23T05:59:59;42.40;;;24.10;;
68577;SDS011;61668;45.388;11.784;2023-03-23T06:02:25;44.80;;;25.40;;
68577;SDS011;61668;45.388;11.784;2023-03-23T06:04:54;44.80;;;26.50;;
68577;SDS011;61668;45.388;11.784;2023-03-23T06:07:26;46.30;;;27.00;;
68577;SDS011;61668;45.388;11.784;2023-03-23T06:09:52;46.30;;;26.00;;
68577;SDS011;61668;45.388;11.784;2023-03-23T06:12:18;53.20;;;29.10;;
68577;SDS011;61668;45.388;11.784;2023-03-23T06:14:47;55.00;;;30.70;;
68577;SDS011;61668;45.388;11.784;2023-03-23T06:17:14;52.80;;;31.40;;
68577;SDS011;61668;45.388;11.784;2023-03-23T06:19:43;49.90;;;29.10;;
68577;SDS011;61668;45.388;11.784;2023-03-23T06:22:11;47.90;;;27.70;;
68577;SDS011;61668;45.388;11.784;2023-03-23T06:24:37;49.20;;;27.00;;
68577;SDS011;61668;45.388;11.784;2023-03-23T06:27:03;50.30;;;28.60;;
68577;SDS011;61668;45.388;11.784;2023-03-23T06:29:29;45.80;;;27.40;;
68577;SDS011;61668;45.388;11.784;2023-03-23T06:32:00;45.70;;;28.40;;
68577;SDS011;61668;45.388;11.784;2023-03-23T06:34:27;52.70;;;30.40;;
68577;SDS011;61668;45.388;11.784;2023-03-23T06:36:55;48.40;;;30.30;;
68577;SDS011;61668;45.388;11.784;2023-03-23T06:39:21;47.80;;;29.80;;
68577;SDS011;61668;45.388;11.784;2023-03-23T06:41:47;47.70;;;28.70;;
68577;SDS011;61668;45.388;11.784;2023-03-23T06:44:13;44.90;;;28.10;;
68577;SDS011;61668;45.388;11.784;2023-03-23T06:46:41;46.00;;;29.40;;
68577;SDS011;61668;45.388;11.784;2023-03-23T06:49:08;46.00;;;28.60;;
68577;SDS011;61668;45.388;11.784;2023-03-23T06:51:35;52.90;;;31.70;;
68577;SDS011;61668;45.388;11.784;2023-03-23T06:54:03;49.20;;;31.60;;
68577;SDS011;61668;45.388;11.784;2023-03-23T06:56:30;53.00;;;33.10;;
68577;SDS011;61668;45.388;11.784;2023-03-23T06:58:56;48.40;;;30.80;;
68577;SDS011;61668;45.388;11.784;2023-03-23T07:01:22;48.40;;;30.20;;
68577;SDS011;61668;45.388;11.784;2023-03-23T07:03:48;48.80;;;32.30;;
68577;SDS011;61668;45.388;11.784;2023-03-23T07:06:15;51.00;;;33.50;;
68577;SDS011;61668;45.388;11.784;2023-03-23T07:08:41;47.60;;;30.80;;
68577;SDS011;61668;45.388;11.784;2023-03-23T07:11:07;52.60;;;32.60;;
68577;SDS011;61668;45.388;11.784;2023-03-23T07:13:35;46.90;;;30.90;;
68577;SDS011;61668;45.388;11.784;2023-03-23T07:16:04;48.00;;;30.90;;
68577;SDS011;61668;45.388;11.784;2023-03-23T07:18:32;46.40;;;30.40;;
68577;SDS011;61668;45.388;11.784;2023-03-23T07:20:59;50.60;;;30.60;;
68577;SDS011;61668;45.388;11.784;2023-03-23T07:23:25;47.70;;;30.70;;
68577;SDS011;61668;45.388;11.784;2023-03-23T07:25:51;51.40;;;31.20;;
68577;SDS011;61668;45.388;11.784;2023-03-23T07:28:17;47.40;;;32.20;;
68577;SDS011;61668;45.388;11.784;2023-03-23T07:30:44;45.60;;;32.30;;
68577;SDS011;61668;45.388;11.784;2023-03-23T07:33:10;47.50;;;30.40;;
68577;SDS011;61668;45.388;11.784;2023-03-23T07:35:36;47.60;;;32.20;;
68577;SDS011;61668;45.388;11.784;2023-03-23T07:38:04;44.20;;;30.50;;
68577;SDS011;61668;45.388;11.784;2023-03-23T07:40:31;49.90;;;32.20;;
68577;SDS011;61668;45.388;11.784;2023-03-23T07:43:02;50.30;;;34.40;;
68577;SDS011;61668;45.388;11.784;2023-03-23T07:45:29;49.50;;;32.60;;
68577;SDS011;61668;45.388;11.784;2023-03-23T07:47:56;53.20;;;32.70;;
68577;SDS011;61668;45.388;11.784;2023-03-23T07:50:23;49.40;;;30.90;;
68577;SDS011;61668;45.388;11.784;2023-03-23T07:52:56;47.00;;;31.60;;
68577;SDS011;61668;45.388;11.784;2023-03-23T07:55:24;47.20;;;30.20;;
68577;SDS011;61668;45.388;11.784;2023-03-23T07:57:51;44.40;;;29.70;;
68577;SDS011;61668;45.388;11.784;2023-03-23T08:00:20;45.80;;;30.20;;
68577;SDS011;61668;45.388;11.784;2023-03-23T08:02:52;46.60;;;31.40;;
68577;SDS011;61668;45.388;11.784;2023-03-23T08:05:21;40.60;;;28.70;;
68577;SDS011;61668;45.388;11.784;2023-03-23T08:07:48;42.90;;;30.50;;
68577;SDS011;61668;45.388;11.784;2023-03-23T08:10:15;43.70;;;29.60;;
68577;SDS011;61668;45.388;11.784;2023-03-23T08:12:43;41.10;;;30.10;;
68577;SDS011;61668;45.388;11.784;2023-03-23T08:15:11;43.30;;;30.60;;
68577;SDS011;61668;45.388;11.784;2023-03-23T08:17:40;44.00;;;30.50;;
68577;SDS011;61668;45.388;11.784;2023-03-23T08:20:08;43.70;;;29.20;;
68577;SDS011;61668;45.388;11.784;2023-03-23T08:22:39;45.40;;;29.80;;
68577;SDS011;61668;45.388;11.784;2023-03-23T08:25:08;44.40;;;29.40;;
68577;SDS011;61668;45.388;11.784;2023-03-23T08:27:36;44.20;;;29.40;;
68577;SDS011;61668;45.388;11.784;2023-03-23T08:30:04;45.50;;;31.20;;
68577;SDS011;61668;45.388;11.784;2023-03-23T08:32:31;43.40;;;31.80;;
68577;SDS011;61668;45.388;11.784;2023-03-23T08:34:57;45.60;;;30.80;;
68577;SDS011;61668;45.388;11.784;2023-03-23T08:37:23;39.50;;;28.90;;
68577;SDS011;61668;45.388;11.784;2023-03-23T08:39:54;41.80;;;28.70;;
68577;SDS011;61668;45.388;11.784;2023-03-23T08:42:20;44.90;;;32.40;;
68577;SDS011;61668;45.388;11.784;2023-03-23T08:44:48;45.30;;;32.30;;
68577;SDS011;61668;45.388;11.784;2023-03-23T08:47:14;42.70;;;29.40;;
68577;SDS011;61668;45.388;11.784;2023-03-23T08:49:41;38.40;;;26.60;;
68577;SDS011;61668;45.388;11.784;2023-03-23T08:52:08;41.30;;;28.20;;
68577;SDS011;61668;45.388;11.784;2023-03-23T08:54:34;41.50;;;27.20;;
68577;SDS011;61668;45.388;11.784;2023-03-23T08:57:01;42.60;;;29.10;;
68577;SDS011;61668;45.388;11.784;2023-03-23T08:59:28;43.10;;;30.50;;
68577;SDS011;61668;45.388;11.784;2023-03-23T09:01:54;41.30;;;28.00;;
68577;SDS011;61668;45.388;11.784;2023-03-23T09:04:20;37.10;;;25.00;;
68577;SDS011;61668;45.388;11.784;2023-03-23T09:06:46;37.10;;;24.80;;
68577;SDS011;61668;45.388;11.784;2023-03-23T09:09:12;30.60;;;20.30;;
68577;SDS011;61668;45.388;11.784;2023-03-23T09:11:39;36.00;;;22.90;;
68577;SDS011;61668;45.388;11.784;2023-03-23T09:14:06;30.90;;;22.50;;
68577;SDS011;61668;45.388;11.784;2023-03-23T09:16:34;33.10;;;23.30;;
68577;SDS011;61668;45.388;11.784;2023-03-23T09:19:00;33.60;;;23.50;;
68577;SDS011;61668;45.388;11.784;2023-03-23T09:21:27;34.40;;;24.30;;
68577;SDS011;61668;45.388;11.784;2023-03-23T09:23:55;35.30;;;23.60;;
68577;SDS011;61668;45.388;11.784;2023-03-23T09:26:24;32.50;;;21.20;;
68577;SDS011;61668;45.388;11.784;2023-03-23T09:28:51;31.80;;;20.50;;
68577;SDS011;61668;45.388;11.784;2023-03-23T09:31:17;29.60;;;20.60;;
68577;SDS011;61668;45.388;11.784;2023-03-23T09:33:47;29.60;;;21.40;;
68577;SDS011;61668;45.388;11.784;2023-03-23T09:36:18;31.90;;;20.60;;
68577;SDS011;61668;45.388;11.784;2023-03-23T09:38:47;30.60;;;20.70;;
68577;SDS011;61668;45.388;11.784;2023-03-23T09:52:05;31.10;;;22.40;;
68577;SDS011;61668;45.388;11.784;2023-03-23T09:54:45;33.70;;;22.40;;
68577;SDS011;61668;45.388;11.784;2023-03-23T10:00:01;34.00;;;23.70;;
68577;SDS011;61668;45.388;11.784;2023-03-23T10:05:25;36.50;;;24.70;;
68577;SDS011;61668;45.388;11.784;2023-03-23T10:07:57;34.50;;;24.50;;
68577;SDS011;61668;45.388;11.784;2023-03-23T10:10:31;36.00;;;23.50;;
68577;SDS011;61668;45.388;11.784;2023-03-23T10:13:09;32.60;;;22.70;;
68577;SDS011;61668;45.388;11.784;2023-03-23T10:15:56;39.20;;;23.20;;
68577;SDS011;61668;45.388;11.784;2023-03-23T10:18:35;43.80;;;29.60;;
68577;SDS011;61668;45.388;11.784;2023-03-23T10:21:03;37.10;;;24.70;;
68577;SDS011;61668;45.388;11.784;2023-03-23T10:27:03;36.10;;;23.50;;
68577;SDS011;61668;45.388;11.784;2023-03-23T10:29:48;35.50;;;24.10;;
68577;SDS011;61668;45.388;11.784;2023-03-23T10:32:21;39.00;;;25.30;;
68577;SDS011;61668;45.388;11.784;2023-03-23T10:35:09;37.10;;;23.40;;
68577;SDS011;61668;45.388;11.784;2023-03-23T10:37:45;35.60;;;24.30;;
68577;SDS011;61668;45.388;11.784;2023-03-23T10:40:18;37.70;;;24.70;;
68577;SDS011;61668;45.388;11.784;2023-03-23T10:42:52;35.50;;;22.80;;
68577;SDS011;61668;45.388;11.784;2023-03-23T10:45:26;34.70;;;23.20;;
68577;SDS011;61668;45.388;11.784;2023-03-23T10:51:17;32.10;;;22.90;;
68577;SDS011;61668;45.388;11.784;2023-03-23T10:53:51;36.60;;;24.40;;
68577;SDS011;61668;45.388;11.784;2023-03-23T10:56:28;34.50;;;23.30;;
68577;SDS011;61668;45.388;11.784;2023-03-23T10:59:13;34.80;;;24.90;;
68577;SDS011;61668;45.388;11.784;2023-03-23T11:01:50;34.70;;;22.90;;
68577;SDS011;61668;45.388;11.784;2023-03-23T11:04:18;35.00;;;24.80;;
68577;SDS011;61668;45.388;11.784;2023-03-23T11:06:58;35.00;;;30.10;;
68577;SDS011;61668;45.388;11.784;2023-03-23T11:09:51;33.60;;;23.70;;
68577;SDS011;61668;45.388;11.784;2023-03-23T11:12:19;32.10;;;21.60;;
68577;SDS011;61668;45.388;11.784;2023-03-23T11:14:45;34.40;;;22.10;;
68577;SDS011;61668;45.388;11.784;2023-03-23T11:17:23;34.80;;;23.30;;
68577;SDS011;61668;45.388;11.784;2023-03-23T11:19:52;33.60;;;22.80;;
68577;SDS011;61668;45.388;11.784;2023-03-23T11:24:56;31.80;;;20.90;;
68577;SDS011;61668;45.388;11.784;2023-03-23T11:27:27;34.70;;;22.60;;
68577;SDS011;61668;45.388;11.784;2023-03-23T11:29:55;29.90;;;20.50;;
68577;SDS011;61668;45.388;11.784;2023-03-23T11:32:33;34.40;;;22.40;;
68577;SDS011;61668;45.388;11.784;2023-03-23T11:35:00;28.80;;;20.90;;
68577;SDS011;61668;45.388;11.784;2023-03-23T11:37:41;25.50;;;16.80;;
68577;SDS011;61668;45.388;11.784;2023-03-23T11:40:21;26.20;;;18.50;;
68577;SDS011;61668;45.388;11.784;2023-03-23T11:42:57;27.70;;;18.10;;
68577;SDS011;61668;45.388;11.784;2023-03-23T11:45:34;28.10;;;19.60;;
68577;SDS011;61668;45.388;11.784;2023-03-23T11:51:13;26.60;;;17.90;;
68577;SDS011;61668;45.388;11.784;2023-03-23T11:56:46;25.60;;;18.10;;
68577;SDS011;61668;45.388;11.784;2023-03-23T11:59:16;27.40;;;18.60;;
68577;SDS011;61668;45.388;11.784;2023-03-23T12:17:29;29.30;;;20.10;;
68577;SDS011;61668;45.388;11.784;2023-03-23T12:20:30;28.60;;;18.20;;
68577;SDS011;61668;45.388;11.784;2023-03-23T12:25:51;26.10;;;17.30;;
68577;SDS011;61668;45.388;11.784;2023-03-23T12:39:50;30.20;;;18.50;;
68577;SDS011;61668;45.388;11.784;2023-03-23T12:43:17;29.70;;;18.30;;
68577;SDS011;61668;45.388;11.784;2023-03-23T12:46:14;25.80;;;17.00;;
68577;SDS011;61668;45.388;11.784;2023-03-23T12:49:01;27.50;;;17.20;;
68577;SDS011;61668;45.388;11.784;2023-03-23T12:57:29;25.60;;;16.90;;
68577;SDS011;61668;45.388;11.784;2023-03-23T13:00:29;29.00;;;18.00;;
68577;SDS011;61668;45.388;11.784;2023-03-23T13:03:14;25.60;;;16.40;;
68577;SDS011;61668;45.388;11.784;2023-03-23T13:05:52;26.50;;;16.70;;
68577;SDS011;61668;45.388;11.784;2023-03-23T13:08:31;27.40;;;17.40;;
68577;SDS011;61668;45.388;11.784;2023-03-23T13:11:20;29.50;;;17.70;;
68577;SDS011;61668;45.388;11.784;2023-03-23T13:13:55;30.50;;;18.10;;
68577;SDS011;61668;45.388;11.784;2023-03-23T13:22:38;28.80;;;16.70;;
68577;SDS011;61668;45.388;11.784;2023-03-23T13:25:15;27.30;;;17.20;;
68577;SDS011;61668;45.388;11.784;2023-03-23T13:27:44;27.60;;;16.90;;
68577;SDS011;61668;45.388;11.784;2023-03-23T13:30:19;29.50;;;17.90;;
68577;SDS011;61668;45.388;11.784;2023-03-23T13:32:46;27.40;;;16.50;;
68577;SDS011;61668;45.388;11.784;2023-03-23T13:35:13;27.90;;;18.00;;
68577;SDS011;61668;45.388;11.784;2023-03-23T13:37:51;25.80;;;15.00;;
68577;SDS011;61668;45.388;11.784;2023-03-23T13:40:28;24.50;;;15.40;;
68577;SDS011;61668;45.388;11.784;2023-03-23T13:42:58;25.20;;;15.70;;
68577;SDS011;61668;45.388;11.784;2023-03-23T13:50:58;23.90;;;15.40;;
68577;SDS011;61668;45.388;11.784;2023-03-23T13:53:31;28.10;;;17.20;;
68577;SDS011;61668;45.388;11.784;2023-03-23T13:58:53;26.80;;;16.30;;
68577;SDS011;61668;45.388;11.784;2023-03-23T14:01:37;24.50;;;15.90;;
68577;SDS011;61668;45.388;11.784;2023-03-23T14:04:13;24.60;;;15.30;;
68577;SDS011;61668;45.388;11.784;2023-03-23T14:06:41;22.60;;;14.30;;
68577;SDS011;61668;45.388;11.784;2023-03-23T14:12:20;25.40;;;15.40;;
68577;SDS011;61668;45.388;11.784;2023-03-23T14:14:56;25.20;;;15.90;;
68577;SDS011;61668;45.388;11.784;2023-03-23T14:17:33;22.80;;;14.10;;
68577;SDS011;61668;45.388;11.784;2023-03-23T14:20:06;25.20;;;15.30;;
68577;SDS011;61668;45.388;11.784;2023-03-23T14:22:37;23.70;;;14.40;;
68577;SDS011;61668;45.388;11.784;2023-03-23T14:25:16;25.70;;;15.70;;
68577;SDS011;61668;45.388;11.784;2023-03-23T14:27:44;25.80;;;15.20;;
68577;SDS011;61668;45.388;11.784;2023-03-23T14:30:15;23.50;;;15.10;;
68577;SDS011;61668;45.388;11.784;2023-03-23T14:32:43;23.00;;;14.20;;
68577;SDS011;61668;45.388;11.784;2023-03-23T14:35:27;23.20;;;14.10;;
68577;SDS011;61668;45.388;11.784;2023-03-23T14:37:56;25.40;;;14.60;;
68577;SDS011;61668;45.388;11.784;2023-03-23T14:40:26;24.40;;;14.70;;
68577;SDS011;61668;45.388;11.784;2023-03-23T14:42:53;23.70;;;14.80;;
68577;SDS011;61668;45.388;11.784;2023-03-23T14:45:21;24.20;;;14.20;;
68577;SDS011;61668;45.388;11.784;2023-03-23T14:47:56;22.80;;;12.70;;
68577;SDS011;61668;45.388;11.784;2023-03-23T14:53:36;23.40;;;13.00;;
68577;SDS011;61668;45.388;11.784;2023-03-23T14:56:12;21.20;;;12.30;;
68577;SDS011;61668;45.388;11.784;2023-03-23T14:58:43;22.50;;;12.70;;
68577;SDS011;61668;45.388;11.784;2023-03-23T15:01:13;22.40;;;12.70;;
68577;SDS011;61668;45.388;11.784;2023-03-23T15:03:52;23.80;;;13.00;;
68577;SDS011;61668;45.388;11.784;2023-03-23T15:06:26;22.70;;;13.60;;
68577;SDS011;61668;45.388;11.784;2023-03-23T15:08:56;21.30;;;14.30;;
68577;SDS011;61668;45.388;11.784;2023-03-23T15:11:33;25.80;;;15.50;;
68577;SDS011;61668;45.388;11.784;2023-03-23T15:14:18;25.60;;;15.50;;
68577;SDS011;61668;45.388;11.784;2023-03-23T15:16:48;27.40;;;15.10;;
68577;SDS011;61668;45.388;11.784;2023-03-23T15:19:27;27.10;;;15.90;;
68577;SDS011;61668;45.388;11.784;2023-03-23T15:22:12;24.70;;;15.10;;
68577;SDS011;61668;45.388;11.784;2023-03-23T15:24:44;25.60;;;15.60;;
68577;SDS011;61668;45.388;11.784;2023-03-23T15:27:31;26.20;;;15.90;;
68577;SDS011;61668;45.388;11.784;2023-03-23T15:30:15;27.60;;;17.40;;
68577;SDS011;61668;45.388;11.784;2023-03-23T15:32:47;23.80;;;14.40;;
68577;SDS011;61668;45.388;11.784;2023-03-23T15:35:20;23.50;;;14.30;;
68577;SDS011;61668;45.388;11.784;2023-03-23T15:37:52;24.20;;;15.00;;
68577;SDS011;61668;45.388;11.784;2023-03-23T15:40:23;26.20;;;16.30;;
68577;SDS011;61668;45.388;11.784;2023-03-23T15:48:17;29.30;;;18.60;;
68577;SDS011;61668;45.388;11.784;2023-03-23T15:50:46;25.80;;;16.10;;
68577;SDS011;61668;45.388;11.784;2023-03-23T15:53:33;26.70;;;16.80;;
68577;SDS011;61668;45.388;11.784;2023-03-23T15:56:04;26.30;;;15.80;;
68577;SDS011;61668;45.388;11.784;2023-03-23T15:58:33;27.70;;;16.60;;
68577;SDS011;61668;45.388;11.784;2023-03-23T16:01:03;30.30;;;18.50;;
68577;SDS011;61668;45.388;11.784;2023-03-23T16:03:55;28.90;;;19.10;;
68577;SDS011;61668;45.388;11.784;2023-03-23T16:06:39;34.60;;;19.50;;
68577;SDS011;61668;45.388;11.784;2023-03-23T16:09:06;30.60;;;19.80;;
68577;SDS011;61668;45.388;11.784;2023-03-23T16:11:35;31.90;;;20.00;;
68577;SDS011;61668;45.388;11.784;2023-03-23T16:14:02;31.00;;;19.70;;
68577;SDS011;61668;45.388;11.784;2023-03-23T16:16:39;31.20;;;19.30;;
68577;SDS011;61668;45.388;11.784;2023-03-23T16:19:12;32.00;;;20.00;;
68577;SDS011;61668;45.388;11.784;2023-03-23T16:21:39;33.80;;;20.40;;
68577;SDS011;61668;45.388;11.784;2023-03-23T16:24:06;36.50;;;22.10;;
68577;SDS011;61668;45.388;11.784;2023-03-23T16:26:33;32.40;;;20.50;;
68577;SDS011;61668;45.388;11.784;2023-03-23T16:28:59;32.10;;;21.50;;
68577;SDS011;61668;45.388;11.784;2023-03-23T16:31:27;37.30;;;21.80;;